sensor_id;sensor_type;location;lat;lon;timestamp;P1;durP1;ratioP1;P2;durP2;ratioP2
72319;SDS011;60269;52.502;16.732;2024-02-14T00:01:06;31.08;;;10.40;;
72319;SDS011;60269;52.502;16.732;2024-02-14T00:04:44;33.03;;;10.68;;
72319;SDS011;60269;52.502;16.732;2024-02-14T00:08:16;27.10;;;10.63;;
72319;SDS011;60269;52.502;16.732;2024-02-14T00:11:48;28.95;;;12.05;;
72319;SDS011;60269;52.502;16.732;2024-02-14T00:15:21;31.45;;;11.60;;
72319;SDS011;60269;52.502;16.732;2024-02-14T00:18:53;36.72;;;10.75;;
72319;SDS011;60269;52.502;16.732;2024-02-14T00:22:25;30.30;;;11.80;;
72319;SDS011;60269;52.502;16.732;2024-02-14T00:25:57;30.02;;;10.85;;
72319;SDS011;60269;52.502;16.732;2024-02-14T00:29:29;32.80;;;12.00;;
72319;SDS011;60269;52.502;16.732;2024-02-14T00:33:01;29.27;;;11.03;;
72319;SDS011;60269;52.502;16.732;2024-02-14T00:36:33;32.97;;;10.82;;
72319;SDS011;60269;52.502;16.732;2024-02-14T00:40:06;33.75;;;10.35;;
72319;SDS011;60269;52.502;16.732;2024-02-14T00:43:38;32.43;;;11.90;;
72319;SDS011;60269;52.502;16.732;2024-02-14T00:47:10;33.10;;;11.52;;
72319;SDS011;60269;52.502;16.732;2024-02-14T00:50:43;31.13;;;11.25;;
72319;SDS011;60269;52.502;16.732;2024-02-14T00:54:15;33.45;;;11.00;;
72319;SDS011;60269;52.502;16.732;2024-02-14T00:57:47;25.93;;;10.33;;
72319;SDS011;60269;52.502;16.732;2024-02-14T01:01:19;34.53;;;12.25;;
72319;SDS011;60269;52.502;16.732;2024-02-14T01:04:51;32.60;;;11.77;;
72319;SDS011;60269;52.502;16.732;2024-02-14T01:08:24;33.23;;;10.97;;
72319;SDS011;60269;52.502;16.732;2024-02-14T01:11:56;33.78;;;10.82;;
72319;SDS011;60269;52.502;16.732;2024-02-14T01:15:28;23.25;;;8.80;;
72319;SDS011;60269;52.502;16.732;2024-02-14T01:19:00;30.10;;;10.30;;
72319;SDS011;60269;52.502;16.732;2024-02-14T01:22:32;31.83;;;10.77;;
72319;SDS011;60269;52.502;16.732;2024-02-14T01:26:04;24.88;;;9.95;;
72319;SDS011;60269;52.502;16.732;2024-02-14T01:29:36;29.40;;;11.05;;
72319;SDS011;60269;52.502;16.732;2024-02-14T01:33:08;29.73;;;11.17;;
72319;SDS011;60269;52.502;16.732;2024-02-14T01:36:41;30.83;;;10.52;;
72319;SDS011;60269;52.502;16.732;2024-02-14T01:40:13;29.13;;;10.50;;
72319;SDS011;60269;52.502;16.732;2024-02-14T01:43:45;26.27;;;10.60;;
72319;SDS011;60269;52.502;16.732;2024-02-14T01:47:17;29.58;;;10.50;;
72319;SDS011;60269;52.502;16.732;2024-02-14T01:50:50;33.70;;;10.55;;
72319;SDS011;60269;52.502;16.732;2024-02-14T01:54:23;31.77;;;10.80;;
72319;SDS011;60269;52.502;16.732;2024-02-14T01:57:56;26.90;;;10.60;;
72319;SDS011;60269;52.502;16.732;2024-02-14T02:01:28;30.48;;;11.30;;
72319;SDS011;60269;52.502;16.732;2024-02-14T02:05:01;25.95;;;9.60;;
72319;SDS011;60269;52.502;16.732;2024-02-14T02:08:33;32.90;;;10.70;;
72319;SDS011;60269;52.502;16.732;2024-02-14T02:12:05;27.63;;;10.18;;
72319;SDS011;60269;52.502;16.732;2024-02-14T02:15:39;28.30;;;11.23;;
72319;SDS011;60269;52.502;16.732;2024-02-14T02:19:13;32.60;;;11.07;;
72319;SDS011;60269;52.502;16.732;2024-02-14T02:22:47;30.58;;;11.50;;
72319;SDS011;60269;52.502;16.732;2024-02-14T02:26:20;27.23;;;11.43;;
72319;SDS011;60269;52.502;16.732;2024-02-14T02:29:52;27.07;;;11.33;;
72319;SDS011;60269;52.502;16.732;2024-02-14T02:33:24;38.72;;;12.38;;
72319;SDS011;60269;52.502;16.732;2024-02-14T02:36:58;32.05;;;11.75;;
72319;SDS011;60269;52.502;16.732;2024-02-14T02:40:30;32.78;;;11.75;;
72319;SDS011;60269;52.502;16.732;2024-02-14T02:44:03;32.83;;;12.37;;
72319;SDS011;60269;52.502;16.732;2024-02-14T02:47:38;31.92;;;12.55;;
72319;SDS011;60269;52.502;16.732;2024-02-14T02:51:11;34.17;;;13.23;;
72319;SDS011;60269;52.502;16.732;2024-02-14T02:54:43;33.37;;;12.33;;
72319;SDS011;60269;52.502;16.732;2024-02-14T02:58:15;33.75;;;12.70;;
72319;SDS011;60269;52.502;16.732;2024-02-14T03:01:48;35.05;;;12.32;;
72319;SDS011;60269;52.502;16.732;2024-02-14T03:05:21;31.10;;;12.67;;
72319;SDS011;60269;52.502;16.732;2024-02-14T03:08:55;31.80;;;11.57;;
72319;SDS011;60269;52.502;16.732;2024-02-14T03:12:29;32.80;;;13.23;;
72319;SDS011;60269;52.502;16.732;2024-02-14T03:16:03;29.58;;;12.43;;
72319;SDS011;60269;52.502;16.732;2024-02-14T03:19:36;37.93;;;12.70;;
72319;SDS011;60269;52.502;16.732;2024-02-14T03:23:10;33.17;;;12.45;;
72319;SDS011;60269;52.502;16.732;2024-02-14T03:26:43;30.33;;;11.75;;
72319;SDS011;60269;52.502;16.732;2024-02-14T03:30:15;33.23;;;13.07;;
72319;SDS011;60269;52.502;16.732;2024-02-14T03:33:48;31.95;;;12.80;;
72319;SDS011;60269;52.502;16.732;2024-02-14T03:37:21;35.25;;;12.27;;
72319;SDS011;60269;52.502;16.732;2024-02-14T03:40:53;38.03;;;13.87;;
72319;SDS011;60269;52.502;16.732;2024-02-14T03:44:26;40.10;;;12.40;;
72319;SDS011;60269;52.502;16.732;2024-02-14T03:47:57;35.78;;;13.35;;
72319;SDS011;60269;52.502;16.732;2024-02-14T03:51:30;36.05;;;12.80;;
72319;SDS011;60269;52.502;16.732;2024-02-14T03:55:02;33.10;;;12.80;;
72319;SDS011;60269;52.502;16.732;2024-02-14T03:58:34;38.53;;;13.18;;
72319;SDS011;60269;52.502;16.732;2024-02-14T04:02:09;30.50;;;12.63;;
72319;SDS011;60269;52.502;16.732;2024-02-14T04:05:42;29.20;;;11.43;;
72319;SDS011;60269;52.502;16.732;2024-02-14T04:09:14;33.05;;;12.70;;
72319;SDS011;60269;52.502;16.732;2024-02-14T04:12:47;32.95;;;12.38;;
72319;SDS011;60269;52.502;16.732;2024-02-14T04:16:19;33.20;;;12.67;;
72319;SDS011;60269;52.502;16.732;2024-02-14T04:19:52;32.95;;;11.70;;
72319;SDS011;60269;52.502;16.732;2024-02-14T04:23:24;28.70;;;11.20;;
72319;SDS011;60269;52.502;16.732;2024-02-14T04:26:57;37.33;;;13.13;;
72319;SDS011;60269;52.502;16.732;2024-02-14T04:30:29;35.47;;;12.63;;
72319;SDS011;60269;52.502;16.732;2024-02-14T04:34:01;29.92;;;11.68;;
72319;SDS011;60269;52.502;16.732;2024-02-14T04:37:33;29.73;;;11.48;;
72319;SDS011;60269;52.502;16.732;2024-02-14T04:41:05;24.43;;;11.03;;
72319;SDS011;60269;52.502;16.732;2024-02-14T04:44:37;31.10;;;12.35;;
72319;SDS011;60269;52.502;16.732;2024-02-14T04:48:11;34.88;;;11.50;;
72319;SDS011;60269;52.502;16.732;2024-02-14T04:51:43;36.87;;;13.80;;
72319;SDS011;60269;52.502;16.732;2024-02-14T04:55:15;33.97;;;12.82;;
72319;SDS011;60269;52.502;16.732;2024-02-14T04:58:47;35.15;;;11.93;;
72319;SDS011;60269;52.502;16.732;2024-02-14T05:02:20;31.85;;;13.13;;
72319;SDS011;60269;52.502;16.732;2024-02-14T05:05:52;33.37;;;12.77;;
72319;SDS011;60269;52.502;16.732;2024-02-14T05:09:25;34.13;;;12.38;;
72319;SDS011;60269;52.502;16.732;2024-02-14T05:12:57;30.63;;;12.25;;
72319;SDS011;60269;52.502;16.732;2024-02-14T05:16:29;28.03;;;11.47;;
72319;SDS011;60269;52.502;16.732;2024-02-14T05:20:01;33.08;;;12.63;;
72319;SDS011;60269;52.502;16.732;2024-02-14T05:23:33;33.53;;;12.13;;
72319;SDS011;60269;52.502;16.732;2024-02-14T05:27:07;32.47;;;11.63;;
72319;SDS011;60269;52.502;16.732;2024-02-14T05:30:40;30.75;;;12.05;;
72319;SDS011;60269;52.502;16.732;2024-02-14T05:34:13;30.58;;;11.27;;
72319;SDS011;60269;52.502;16.732;2024-02-14T05:37:46;32.10;;;12.38;;
72319;SDS011;60269;52.502;16.732;2024-02-14T05:41:21;28.57;;;11.93;;
72319;SDS011;60269;52.502;16.732;2024-02-14T05:44:55;37.10;;;12.65;;
72319;SDS011;60269;52.502;16.732;2024-02-14T05:48:27;32.38;;;12.50;;
72319;SDS011;60269;52.502;16.732;2024-02-14T05:51:59;34.20;;;12.07;;
72319;SDS011;60269;52.502;16.732;2024-02-14T05:55:31;33.20;;;11.85;;
72319;SDS011;60269;52.502;16.732;2024-02-14T05:59:04;34.67;;;12.57;;
72319;SDS011;60269;52.502;16.732;2024-02-14T06:02:37;28.03;;;12.70;;
72319;SDS011;60269;52.502;16.732;2024-02-14T06:06:09;36.97;;;13.27;;
72319;SDS011;60269;52.502;16.732;2024-02-14T06:09:41;33.40;;;13.18;;
72319;SDS011;60269;52.502;16.732;2024-02-14T06:13:13;36.78;;;14.05;;
72319;SDS011;60269;52.502;16.732;2024-02-14T06:16:45;31.57;;;12.40;;
72319;SDS011;60269;52.502;16.732;2024-02-14T06:20:17;33.53;;;12.18;;
72319;SDS011;60269;52.502;16.732;2024-02-14T06:23:51;31.10;;;12.02;;
72319;SDS011;60269;52.502;16.732;2024-02-14T06:27:24;35.93;;;10.83;;
72319;SDS011;60269;52.502;16.732;2024-02-14T06:30:55;33.83;;;11.88;;
72319;SDS011;60269;52.502;16.732;2024-02-14T06:34:27;26.83;;;11.00;;
72319;SDS011;60269;52.502;16.732;2024-02-14T06:38:00;32.83;;;11.93;;
72319;SDS011;60269;52.502;16.732;2024-02-14T06:41:36;36.03;;;13.02;;
72319;SDS011;60269;52.502;16.732;2024-02-14T06:45:08;31.23;;;12.50;;
72319;SDS011;60269;52.502;16.732;2024-02-14T06:48:40;37.30;;;11.85;;
72319;SDS011;60269;52.502;16.732;2024-02-14T06:52:13;33.37;;;12.67;;
72319;SDS011;60269;52.502;16.732;2024-02-14T06:55:45;31.40;;;11.80;;
72319;SDS011;60269;52.502;16.732;2024-02-14T06:59:18;32.53;;;11.38;;
72319;SDS011;60269;52.502;16.732;2024-02-14T07:02:51;37.47;;;12.57;;
72319;SDS011;60269;52.502;16.732;2024-02-14T07:06:23;28.02;;;12.27;;
72319;SDS011;60269;52.502;16.732;2024-02-14T07:09:55;32.25;;;12.32;;
72319;SDS011;60269;52.502;16.732;2024-02-14T07:13:27;29.10;;;12.33;;
72319;SDS011;60269;52.502;16.732;2024-02-14T07:16:59;30.80;;;12.80;;
72319;SDS011;60269;52.502;16.732;2024-02-14T07:20:31;31.05;;;11.63;;
72319;SDS011;60269;52.502;16.732;2024-02-14T07:24:04;31.17;;;12.05;;
72319;SDS011;60269;52.502;16.732;2024-02-14T07:27:37;34.20;;;13.47;;
72319;SDS011;60269;52.502;16.732;2024-02-14T07:31:09;31.13;;;12.55;;
72319;SDS011;60269;52.502;16.732;2024-02-14T07:34:42;35.45;;;13.07;;
72319;SDS011;60269;52.502;16.732;2024-02-14T07:38:15;34.90;;;13.37;;
72319;SDS011;60269;52.502;16.732;2024-02-14T07:41:48;29.88;;;13.18;;
72319;SDS011;60269;52.502;16.732;2024-02-14T07:45:21;34.47;;;13.55;;
72319;SDS011;60269;52.502;16.732;2024-02-14T07:48:53;33.73;;;12.27;;
72319;SDS011;60269;52.502;16.732;2024-02-14T07:52:26;33.95;;;11.68;;
72319;SDS011;60269;52.502;16.732;2024-02-14T07:55:58;28.63;;;11.63;;
72319;SDS011;60269;52.502;16.732;2024-02-14T07:59:30;29.48;;;11.88;;
72319;SDS011;60269;52.502;16.732;2024-02-14T08:03:03;27.90;;;11.13;;
72319;SDS011;60269;52.502;16.732;2024-02-14T08:06:38;33.90;;;12.52;;
72319;SDS011;60269;52.502;16.732;2024-02-14T08:10:10;34.97;;;13.10;;
72319;SDS011;60269;52.502;16.732;2024-02-14T08:13:42;27.67;;;12.20;;
72319;SDS011;60269;52.502;16.732;2024-02-14T08:17:14;42.88;;;15.48;;
72319;SDS011;60269;52.502;16.732;2024-02-14T08:20:46;36.13;;;14.27;;
72319;SDS011;60269;52.502;16.732;2024-02-14T08:24:18;41.50;;;14.37;;
72319;SDS011;60269;52.502;16.732;2024-02-14T08:27:50;37.53;;;14.70;;
72319;SDS011;60269;52.502;16.732;2024-02-14T08:31:22;39.25;;;15.00;;
72319;SDS011;60269;52.502;16.732;2024-02-14T08:34:54;42.05;;;15.35;;
72319;SDS011;60269;52.502;16.732;2024-02-14T08:38:27;33.33;;;13.83;;
72319;SDS011;60269;52.502;16.732;2024-02-14T08:41:59;41.60;;;14.98;;
72319;SDS011;60269;52.502;16.732;2024-02-14T08:45:33;37.70;;;15.05;;
72319;SDS011;60269;52.502;16.732;2024-02-14T08:49:06;32.67;;;13.63;;
72319;SDS011;60269;52.502;16.732;2024-02-14T08:52:43;32.28;;;13.10;;
72319;SDS011;60269;52.502;16.732;2024-02-14T08:56:15;35.53;;;13.55;;
72319;SDS011;60269;52.502;16.732;2024-02-14T08:59:47;29.67;;;13.57;;
72319;SDS011;60269;52.502;16.732;2024-02-14T09:03:20;35.83;;;14.48;;
72319;SDS011;60269;52.502;16.732;2024-02-14T09:06:52;30.55;;;13.13;;
72319;SDS011;60269;52.502;16.732;2024-02-14T09:10:24;29.35;;;13.02;;
72319;SDS011;60269;52.502;16.732;2024-02-14T09:13:56;35.10;;;13.17;;
72319;SDS011;60269;52.502;16.732;2024-02-14T09:17:36;34.97;;;13.85;;
72319;SDS011;60269;52.502;16.732;2024-02-14T09:21:08;26.67;;;11.73;;
72319;SDS011;60269;52.502;16.732;2024-02-14T09:24:40;26.63;;;11.17;;
72319;SDS011;60269;52.502;16.732;2024-02-14T09:28:13;25.05;;;11.80;;
72319;SDS011;60269;52.502;16.732;2024-02-14T09:31:53;26.58;;;10.45;;
72319;SDS011;60269;52.502;16.732;2024-02-14T09:35:26;27.67;;;11.20;;
72319;SDS011;60269;52.502;16.732;2024-02-14T09:38:58;28.38;;;10.35;;
72319;SDS011;60269;52.502;16.732;2024-02-14T09:42:49;23.10;;;9.95;;
72319;SDS011;60269;52.502;16.732;2024-02-14T09:46:26;24.77;;;10.75;;
72319;SDS011;60269;52.502;16.732;2024-02-14T09:50:00;20.70;;;8.70;;
72319;SDS011;60269;52.502;16.732;2024-02-14T09:53:34;24.70;;;8.65;;
72319;SDS011;60269;52.502;16.732;2024-02-14T09:57:06;16.27;;;6.80;;
72319;SDS011;60269;52.502;16.732;2024-02-14T10:00:39;23.40;;;8.93;;
72319;SDS011;60269;52.502;16.732;2024-02-14T10:04:13;16.75;;;6.85;;
72319;SDS011;60269;52.502;16.732;2024-02-14T10:07:45;23.98;;;8.13;;
72319;SDS011;60269;52.502;16.732;2024-02-14T10:11:19;18.93;;;7.47;;
72319;SDS011;60269;52.502;16.732;2024-02-14T10:14:53;16.85;;;7.90;;
72319;SDS011;60269;52.502;16.732;2024-02-14T10:18:27;20.55;;;7.65;;
72319;SDS011;60269;52.502;16.732;2024-02-14T10:22:01;16.80;;;6.43;;
72319;SDS011;60269;52.502;16.732;2024-02-14T10:25:37;15.30;;;5.80;;
72319;SDS011;60269;52.502;16.732;2024-02-14T10:29:10;16.02;;;5.95;;
72319;SDS011;60269;52.502;16.732;2024-02-14T10:32:43;15.50;;;5.40;;
72319;SDS011;60269;52.502;16.732;2024-02-14T10:36:21;17.60;;;6.37;;
72319;SDS011;60269;52.502;16.732;2024-02-14T10:39:53;15.88;;;6.22;;
72319;SDS011;60269;52.502;16.732;2024-02-14T10:43:28;18.40;;;6.28;;
72319;SDS011;60269;52.502;16.732;2024-02-14T10:47:02;16.07;;;6.27;;
72319;SDS011;60269;52.502;16.732;2024-02-14T10:50:36;17.98;;;6.75;;
72319;SDS011;60269;52.502;16.732;2024-02-14T10:54:13;16.23;;;6.38;;
72319;SDS011;60269;52.502;16.732;2024-02-14T10:57:48;17.08;;;6.63;;
72319;SDS011;60269;52.502;16.732;2024-02-14T11:01:21;16.80;;;6.43;;
72319;SDS011;60269;52.502;16.732;2024-02-14T11:04:56;19.15;;;6.45;;
72319;SDS011;60269;52.502;16.732;2024-02-14T11:08:29;16.83;;;6.35;;
72319;SDS011;60269;52.502;16.732;2024-02-14T11:12:08;17.40;;;6.73;;
72319;SDS011;60269;52.502;16.732;2024-02-14T11:15:40;19.02;;;7.93;;
72319;SDS011;60269;52.502;16.732;2024-02-14T11:19:16;18.90;;;6.53;;
72319;SDS011;60269;52.502;16.732;2024-02-14T11:22:56;16.47;;;5.70;;
72319;SDS011;60269;52.502;16.732;2024-02-14T11:26:37;15.43;;;5.57;;
72319;SDS011;60269;52.502;16.732;2024-02-14T11:30:10;14.25;;;5.57;;
72319;SDS011;60269;52.502;16.732;2024-02-14T11:33:44;13.82;;;5.43;;
72319;SDS011;60269;52.502;16.732;2024-02-14T11:37:19;18.97;;;6.53;;
72319;SDS011;60269;52.502;16.732;2024-02-14T11:40:55;17.30;;;5.15;;
72319;SDS011;60269;52.502;16.732;2024-02-14T11:44:29;14.95;;;5.82;;
72319;SDS011;60269;52.502;16.732;2024-02-14T11:48:01;16.27;;;4.90;;
72319;SDS011;60269;52.502;16.732;2024-02-14T11:51:33;15.70;;;5.65;;
72319;SDS011;60269;52.502;16.732;2024-02-14T11:55:07;12.82;;;5.10;;
72319;SDS011;60269;52.502;16.732;2024-02-14T11:58:39;16.33;;;6.03;;
72319;SDS011;60269;52.502;16.732;2024-02-14T12:02:11;14.85;;;5.63;;
72319;SDS011;60269;52.502;16.732;2024-02-14T12:05:45;15.82;;;4.93;;
72319;SDS011;60269;52.502;16.732;2024-02-14T12:09:19;17.90;;;5.50;;
72319;SDS011;60269;52.502;16.732;2024-02-14T12:12:54;16.90;;;5.40;;
72319;SDS011;60269;52.502;16.732;2024-02-14T12:16:26;16.85;;;5.63;;
72319;SDS011;60269;52.502;16.732;2024-02-14T12:20:05;17.38;;;5.80;;
72319;SDS011;60269;52.502;16.732;2024-02-14T12:23:45;15.90;;;5.47;;
72319;SDS011;60269;52.502;16.732;2024-02-14T12:27:18;17.50;;;5.65;;
72319;SDS011;60269;52.502;16.732;2024-02-14T12:30:51;14.95;;;5.70;;
72319;SDS011;60269;52.502;16.732;2024-02-14T12:34:28;14.33;;;5.47;;
72319;SDS011;60269;52.502;16.732;2024-02-14T12:38:01;13.00;;;5.13;;
72319;SDS011;60269;52.502;16.732;2024-02-14T12:41:33;12.80;;;5.55;;
72319;SDS011;60269;52.502;16.732;2024-02-14T12:45:07;18.00;;;5.60;;
72319;SDS011;60269;52.502;16.732;2024-02-14T12:48:41;14.27;;;4.67;;
72319;SDS011;60269;52.502;16.732;2024-02-14T12:52:13;14.80;;;5.18;;
72319;SDS011;60269;52.502;16.732;2024-02-14T12:55:46;17.63;;;6.25;;
72319;SDS011;60269;52.502;16.732;2024-02-14T12:59:19;13.33;;;5.63;;
72319;SDS011;60269;52.502;16.732;2024-02-14T13:02:51;16.88;;;5.80;;
72319;SDS011;60269;52.502;16.732;2024-02-14T13:06:24;16.88;;;5.82;;
72319;SDS011;60269;52.502;16.732;2024-02-14T13:09:56;16.50;;;5.60;;
72319;SDS011;60269;52.502;16.732;2024-02-14T13:13:28;20.20;;;6.68;;
72319;SDS011;60269;52.502;16.732;2024-02-14T13:17:01;17.17;;;6.70;;
72319;SDS011;60269;52.502;16.732;2024-02-14T13:20:33;15.27;;;6.45;;
72319;SDS011;60269;52.502;16.732;2024-02-14T13:24:06;21.83;;;7.50;;
72319;SDS011;60269;52.502;16.732;2024-02-14T13:27:40;19.05;;;6.50;;
72319;SDS011;60269;52.502;16.732;2024-02-14T13:31:12;16.15;;;6.30;;
72319;SDS011;60269;52.502;16.732;2024-02-14T13:34:44;16.83;;;6.47;;
72319;SDS011;60269;52.502;16.732;2024-02-14T13:38:17;19.60;;;6.70;;
72319;SDS011;60269;52.502;16.732;2024-02-14T13:41:49;18.35;;;6.30;;
72319;SDS011;60269;52.502;16.732;2024-02-14T13:45:21;17.73;;;6.83;;
72319;SDS011;60269;52.502;16.732;2024-02-14T13:48:54;14.57;;;5.93;;
72319;SDS011;60269;52.502;16.732;2024-02-14T13:52:26;16.75;;;6.22;;
72319;SDS011;60269;52.502;16.732;2024-02-14T13:55:59;16.77;;;6.47;;
72319;SDS011;60269;52.502;16.732;2024-02-14T13:59:31;14.40;;;6.80;;
72319;SDS011;60269;52.502;16.732;2024-02-14T14:03:04;15.73;;;6.70;;
72319;SDS011;60269;52.502;16.732;2024-02-14T14:06:37;19.40;;;7.05;;
72319;SDS011;60269;52.502;16.732;2024-02-14T14:10:09;15.73;;;6.20;;
72319;SDS011;60269;52.502;16.732;2024-02-14T14:13:41;15.85;;;6.47;;
72319;SDS011;60269;52.502;16.732;2024-02-14T14:17:13;17.00;;;7.03;;
72319;SDS011;60269;52.502;16.732;2024-02-14T14:20:45;15.73;;;7.10;;
72319;SDS011;60269;52.502;16.732;2024-02-14T14:24:17;20.75;;;7.38;;
72319;SDS011;60269;52.502;16.732;2024-02-14T14:27:49;22.33;;;8.65;;
72319;SDS011;60269;52.502;16.732;2024-02-14T14:31:21;21.05;;;7.85;;
72319;SDS011;60269;52.502;16.732;2024-02-14T14:34:54;19.57;;;7.93;;
72319;SDS011;60269;52.502;16.732;2024-02-14T14:38:26;28.05;;;8.98;;
72319;SDS011;60269;52.502;16.732;2024-02-14T14:41:58;24.77;;;11.60;;
72319;SDS011;60269;52.502;16.732;2024-02-14T14:45:30;31.47;;;12.03;;
72319;SDS011;60269;52.502;16.732;2024-02-14T14:49:02;25.92;;;11.88;;
72319;SDS011;60269;52.502;16.732;2024-02-14T14:52:35;25.10;;;9.02;;
72319;SDS011;60269;52.502;16.732;2024-02-14T14:56:08;23.33;;;9.10;;
72319;SDS011;60269;52.502;16.732;2024-02-14T14:59:40;23.95;;;9.35;;
72319;SDS011;60269;52.502;16.732;2024-02-14T15:03:12;26.08;;;11.20;;
72319;SDS011;60269;52.502;16.732;2024-02-14T15:06:44;25.23;;;10.60;;
72319;SDS011;60269;52.502;16.732;2024-02-14T15:10:17;26.27;;;10.30;;
72319;SDS011;60269;52.502;16.732;2024-02-14T15:13:49;28.33;;;9.63;;
72319;SDS011;60269;52.502;16.732;2024-02-14T15:17:21;26.65;;;10.77;;
72319;SDS011;60269;52.502;16.732;2024-02-14T15:20:54;25.67;;;9.40;;
72319;SDS011;60269;52.502;16.732;2024-02-14T15:24:26;29.83;;;10.48;;
72319;SDS011;60269;52.502;16.732;2024-02-14T15:27:58;24.88;;;9.35;;
72319;SDS011;60269;52.502;16.732;2024-02-14T15:31:31;20.83;;;10.00;;
72319;SDS011;60269;52.502;16.732;2024-02-14T15:35:22;25.80;;;10.85;;
72319;SDS011;60269;52.502;16.732;2024-02-14T15:38:54;30.15;;;10.98;;
72319;SDS011;60269;52.502;16.732;2024-02-14T15:42:29;26.52;;;10.85;;
72319;SDS011;60269;52.502;16.732;2024-02-14T15:46:01;28.83;;;9.63;;
72319;SDS011;60269;52.502;16.732;2024-02-14T15:49:35;31.90;;;10.82;;
72319;SDS011;60269;52.502;16.732;2024-02-14T15:53:08;23.80;;;9.82;;
72319;SDS011;60269;52.502;16.732;2024-02-14T15:56:41;22.27;;;10.20;;
72319;SDS011;60269;52.502;16.732;2024-02-14T16:00:13;26.08;;;11.75;;
72319;SDS011;60269;52.502;16.732;2024-02-14T16:03:46;29.45;;;11.75;;
72319;SDS011;60269;52.502;16.732;2024-02-14T16:07:19;25.33;;;10.07;;
72319;SDS011;60269;52.502;16.732;2024-02-14T16:10:51;24.45;;;10.27;;
72319;SDS011;60269;52.502;16.732;2024-02-14T16:14:25;24.00;;;10.50;;
72319;SDS011;60269;52.502;16.732;2024-02-14T16:18:01;25.05;;;10.90;;
72319;SDS011;60269;52.502;16.732;2024-02-14T16:21:34;24.00;;;10.80;;
72319;SDS011;60269;52.502;16.732;2024-02-14T16:25:06;28.40;;;11.52;;
72319;SDS011;60269;52.502;16.732;2024-02-14T16:28:38;24.77;;;10.23;;
72319;SDS011;60269;52.502;16.732;2024-02-14T16:32:10;22.77;;;9.53;;
72319;SDS011;60269;52.502;16.732;2024-02-14T16:35:42;28.88;;;11.88;;
72319;SDS011;60269;52.502;16.732;2024-02-14T16:39:14;27.00;;;11.30;;
72319;SDS011;60269;52.502;16.732;2024-02-14T16:43:05;32.97;;;12.27;;
72319;SDS011;60269;52.502;16.732;2024-02-14T16:46:37;26.42;;;11.77;;
72319;SDS011;60269;52.502;16.732;2024-02-14T16:50:10;27.60;;;10.43;;
72319;SDS011;60269;52.502;16.732;2024-02-14T16:53:42;33.13;;;13.10;;
72319;SDS011;60269;52.502;16.732;2024-02-14T16:57:14;28.47;;;11.23;;
72319;SDS011;60269;52.502;16.732;2024-02-14T17:00:51;27.50;;;11.30;;
72319;SDS011;60269;52.502;16.732;2024-02-14T17:04:24;26.27;;;11.18;;
72319;SDS011;60269;52.502;16.732;2024-02-14T17:07:56;24.03;;;10.10;;
72319;SDS011;60269;52.502;16.732;2024-02-14T17:11:28;24.75;;;10.93;;
72319;SDS011;60269;52.502;16.732;2024-02-14T17:15:00;30.88;;;11.32;;
72319;SDS011;60269;52.502;16.732;2024-02-14T17:18:32;28.17;;;12.07;;
72319;SDS011;60269;52.502;16.732;2024-02-14T17:22:05;28.70;;;11.70;;
72319;SDS011;60269;52.502;16.732;2024-02-14T17:25:51;33.88;;;12.40;;
72319;SDS011;60269;52.502;16.732;2024-02-14T17:29:25;37.10;;;13.02;;
72319;SDS011;60269;52.502;16.732;2024-02-14T17:32:58;30.83;;;12.83;;
72319;SDS011;60269;52.502;16.732;2024-02-14T17:36:33;33.47;;;12.90;;
72319;SDS011;60269;52.502;16.732;2024-02-14T17:40:09;31.85;;;12.98;;
72319;SDS011;60269;52.502;16.732;2024-02-14T17:43:41;29.97;;;12.13;;
72319;SDS011;60269;52.502;16.732;2024-02-14T17:47:13;34.60;;;14.50;;
72319;SDS011;60269;52.502;16.732;2024-02-14T17:50:46;36.03;;;14.40;;
72319;SDS011;60269;52.502;16.732;2024-02-14T17:54:21;31.37;;;14.00;;
72319;SDS011;60269;52.502;16.732;2024-02-14T17:57:54;32.35;;;15.43;;
72319;SDS011;60269;52.502;16.732;2024-02-14T18:01:27;36.83;;;15.70;;
72319;SDS011;60269;52.502;16.732;2024-02-14T18:05:00;34.70;;;15.07;;
72319;SDS011;60269;52.502;16.732;2024-02-14T18:08:32;37.97;;;16.23;;
72319;SDS011;60269;52.502;16.732;2024-02-14T18:12:06;38.25;;;15.68;;
72319;SDS011;60269;52.502;16.732;2024-02-14T18:15:38;43.28;;;16.30;;
72319;SDS011;60269;52.502;16.732;2024-02-14T18:19:14;30.67;;;14.47;;
72319;SDS011;60269;52.502;16.732;2024-02-14T18:22:47;42.28;;;16.10;;
72319;SDS011;60269;52.502;16.732;2024-02-14T18:26:19;39.50;;;16.35;;
72319;SDS011;60269;52.502;16.732;2024-02-14T18:29:53;42.47;;;17.63;;
72319;SDS011;60269;52.502;16.732;2024-02-14T18:33:25;38.08;;;15.40;;
72319;SDS011;60269;52.502;16.732;2024-02-14T18:36:58;45.03;;;17.13;;
72319;SDS011;60269;52.502;16.732;2024-02-14T18:40:30;41.58;;;17.50;;
72319;SDS011;60269;52.502;16.732;2024-02-14T18:44:05;39.93;;;16.20;;
72319;SDS011;60269;52.502;16.732;2024-02-14T18:47:37;42.97;;;16.60;;
72319;SDS011;60269;52.502;16.732;2024-02-14T18:51:09;46.03;;;17.08;;
72319;SDS011;60269;52.502;16.732;2024-02-14T18:54:42;45.23;;;19.60;;
72319;SDS011;60269;52.502;16.732;2024-02-14T18:58:14;49.60;;;19.33;;
72319;SDS011;60269;52.502;16.732;2024-02-14T19:01:47;52.42;;;21.58;;
72319;SDS011;60269;52.502;16.732;2024-02-14T19:05:20;46.43;;;18.23;;
72319;SDS011;60269;52.502;16.732;2024-02-14T19:08:54;51.13;;;18.98;;
72319;SDS011;60269;52.502;16.732;2024-02-14T19:12:26;46.42;;;17.92;;
72319;SDS011;60269;52.502;16.732;2024-02-14T19:15:58;54.78;;;19.42;;
72319;SDS011;60269;52.502;16.732;2024-02-14T19:19:43;40.53;;;17.97;;
72319;SDS011;60269;52.502;16.732;2024-02-14T19:23:17;46.72;;;17.98;;
72319;SDS011;60269;52.502;16.732;2024-02-14T19:26:50;49.28;;;19.83;;
72319;SDS011;60269;52.502;16.732;2024-02-14T19:30:22;42.77;;;18.87;;
72319;SDS011;60269;52.502;16.732;2024-02-14T19:33:54;42.88;;;17.30;;
72319;SDS011;60269;52.502;16.732;2024-02-14T19:37:26;40.90;;;16.33;;
72319;SDS011;60269;52.502;16.732;2024-02-14T19:40:59;45.40;;;16.67;;
72319;SDS011;60269;52.502;16.732;2024-02-14T19:44:31;39.33;;;15.73;;
72319;SDS011;60269;52.502;16.732;2024-02-14T19:48:04;41.78;;;15.38;;
72319;SDS011;60269;52.502;16.732;2024-02-14T19:51:36;40.50;;;15.77;;
72319;SDS011;60269;52.502;16.732;2024-02-14T19:55:09;39.77;;;15.50;;
72319;SDS011;60269;52.502;16.732;2024-02-14T19:58:42;33.85;;;14.75;;
72319;SDS011;60269;52.502;16.732;2024-02-14T20:02:14;39.15;;;15.60;;
72319;SDS011;60269;52.502;16.732;2024-02-14T20:05:47;35.80;;;15.00;;
72319;SDS011;60269;52.502;16.732;2024-02-14T20:09:20;39.42;;;15.93;;
72319;SDS011;60269;52.502;16.732;2024-02-14T20:12:52;39.33;;;13.65;;
72319;SDS011;60269;52.502;16.732;2024-02-14T20:16:26;32.13;;;13.93;;
72319;SDS011;60269;52.502;16.732;2024-02-14T20:19:58;38.38;;;14.77;;
72319;SDS011;60269;52.502;16.732;2024-02-14T20:23:30;33.70;;;14.07;;
72319;SDS011;60269;52.502;16.732;2024-02-14T20:27:06;40.15;;;14.68;;
72319;SDS011;60269;52.502;16.732;2024-02-14T20:30:38;37.03;;;14.70;;
72319;SDS011;60269;52.502;16.732;2024-02-14T20:34:10;35.70;;;14.50;;